Time;durP1;ratioP1;P1;durP2;ratioP2;P2;SDS_P1;SDS_P2;PMS_P1;PMS_P2;Temp;Humidity;BMP_temperature;BMP_pressure;BME280_temperature;BME280_humidity;BME280_pressure;Samples;Min_cycle;Max_cycle;Signal;HPM_P1;HPM_P2
2021/05/02 00:00:42;;;;;;;;;;;8.10;99.90;;;;;;10540583;28;19924;-87
2021/05/02 00:05:43;;;;;;;;;;;6.50;99.90;;;;;;10541530;28;20375;-87
2021/05/02 00:10:45;;;;;;;;;;;6.50;99.90;;;;;;10583422;28;19930;-87
2021/05/02 00:15:46;;;;;;;;;;;6.40;99.90;;;;;;10548700;28;19930;-87
2021/05/02 00:20:47;;;;;;;;;;;7.50;99.90;;;;;;10583249;28;19954;-87
2021/05/02 00:25:50;;;;;;;;;;;6.30;99.90;;;;;;10564217;28;19934;-87
2021/05/02 00:30:52;;;;;;;;;;;7.30;99.90;;;;;;10582345;28;20011;-87
2021/05/02 00:35:54;;;;;;;;;;;6.40;99.90;;;;;;10581895;28;19924;-87
2021/05/02 00:40:56;;;;;;;;;;;6.40;99.90;;;;;;10563328;28;20294;-87
2021/05/02 00:46:05;;;;;;;;;;;6.70;99.90;;;;;;10564491;28;20022;-87
2021/05/02 00:51:07;;;;;;;;;;;6.20;99.90;;;;;;10604370;22;19924;-88
2021/05/02 00:56:16;;;;;;;;;;;6.00;99.90;;;;;;10624477;27;20296;-88
2021/05/02 01:01:19;;;;;;;;;;;5.90;99.90;;;;;;10623957;28;19939;-88
2021/05/02 01:06:22;;;;;;;;;;;6.50;99.90;;;;;;10625563;28;19924;-88
2021/05/02 01:11:25;;;;;;;;;;;5.80;99.90;;;;;;10623727;28;19923;-89
2021/05/02 01:16:29;;;;;;;;;;;6.20;99.90;;;;;;10624171;27;19967;-88
2021/05/02 01:21:31;;;;;;;;;;;6.60;99.90;;;;;;10622903;28;19927;-88
2021/05/02 01:26:35;;;;;;;;;;;5.90;99.90;;;;;;10624611;27;19923;-88
2021/05/02 01:31:36;;;;;;;;;;;5.60;99.90;;;;;;10623773;27;19923;-88
2021/05/02 01:36:38;;;;;;;;;;;7.20;99.90;;;;;;10624396;27;20369;-88
2021/05/02 01:41:40;;;;;;;;;;;6.40;99.90;;;;;;10630043;27;19950;-88
2021/05/02 01:46:42;;;;;;;;;;;6.90;99.90;;;;;;10612759;27;20369;-88
2021/05/02 01:51:44;;;;;;;;;;;7.00;99.90;;;;;;10612864;27;20011;-88
2021/05/02 01:56:46;;;;;;;;;;;6.30;99.90;;;;;;10630713;27;19966;-88
2021/05/02 02:01:47;;;;;;;;;;;6.30;99.90;;;;;;10630367;27;20579;-88
2021/05/02 02:06:48;;;;;;;;;;;6.30;99.90;;;;;;10629840;27;19934;-88
2021/05/02 02:11:51;;;;;;;;;;;7.00;99.90;;;;;;10612645;27;19927;-88
2021/05/02 02:16:52;;;;;;;;;;;7.20;99.90;;;;;;10629058;27;19923;-88
2021/05/02 02:21:55;;;;;;;;;;;7.10;99.90;;;;;;10630891;27;19932;-88
2021/05/02 02:26:57;;;;;;;;;;;6.30;99.90;;;;;;10630176;27;19931;-88
2021/05/02 02:32:00;;;;;;;;;;;6.20;99.90;;;;;;10629448;27;19924;-89
2021/05/02 02:37:02;;;;;;;;;;;6.80;99.90;;;;;;10630493;27;19923;-89
2021/05/02 02:42:04;;;;;;;;;;;5.90;99.90;;;;;;10611264;27;19930;-88
2021/05/02 02:47:05;;;;;;;;;;;5.70;99.90;;;;;;10610340;27;20354;-88
2021/05/02 02:52:08;;;;;;;;;;;7.00;99.90;;;;;;10609943;27;19959;-89
2021/05/02 02:57:11;;;;;;;;;;;5.50;99.90;;;;;;10628458;27;20324;-88
2021/05/02 03:02:14;;;;;;;;;;;5.30;99.90;;;;;;10628194;27;20311;-88
2021/05/02 03:07:15;;;;;;;;;;;6.40;99.90;;;;;;10629164;27;19931;-88
2021/05/02 03:12:20;;;;;;;;;;;7.20;99.90;;;;;;10609552;27;19970;-88
2021/05/02 03:17:27;;;;;;;;;;;5.70;99.90;;;;;;10607798;27;20292;-88
2021/05/02 03:22:31;;;;;;;;;;;6.90;99.90;;;;;;10625838;27;20301;-88
2021/05/02 03:27:39;;;;;;;;;;;6.00;99.90;;;;;;10624460;27;20404;-88
2021/05/02 03:32:44;;;;;;;;;;;5.50;99.90;;;;;;10625755;27;19928;-88
2021/05/02 03:37:52;;;;;;;;;;;5.50;99.90;;;;;;10625321;27;19930;-88
2021/05/02 03:42:53;;;;;;;;;;;5.40;99.90;;;;;;10625215;27;19934;-88
2021/05/02 03:47:54;;;;;;;;;;;5.80;99.90;;;;;;10623821;27;19923;-88
2021/05/02 03:52:56;;;;;;;;;;;7.10;99.90;;;;;;10605782;27;19976;-88
2021/05/02 03:57:57;;;;;;;;;;;5.40;99.90;;;;;;10624789;27;19927;-88
2021/05/02 04:02:59;;;;;;;;;;;6.70;99.90;;;;;;10606551;27;19930;-88
2021/05/02 04:08:01;;;;;;;;;;;5.50;99.90;;;;;;10625202;27;19935;-88
2021/05/02 04:13:02;;;;;;;;;;;7.80;99.90;;;;;;10623939;27;20415;-88
2021/05/02 04:18:03;;;;;;;;;;;6.10;99.90;;;;;;10606450;27;19930;-87
2021/05/02 04:23:05;;;;;;;;;;;5.50;99.90;;;;;;10607555;27;19929;-88
2021/05/02 04:28:06;;;;;;;;;;;5.50;99.90;;;;;;10606613;27;19931;-88
2021/05/02 04:33:08;;;;;;;;;;;5.30;99.90;;;;;;10606765;28;19968;-88
2021/05/02 04:38:09;;;;;;;;;;;5.90;99.90;;;;;;10606590;28;20246;-88
2021/05/02 04:43:10;;;;;;;;;;;5.20;99.90;;;;;;10607497;28;19927;-88
2021/05/02 04:48:12;;;;;;;;;;;7.70;99.90;;;;;;10623933;28;20270;-89
2021/05/02 04:53:13;;;;;;;;;;;5.20;99.90;;;;;;10624736;28;19929;-88
2021/05/02 04:58:15;;;;;;;;;;;5.20;99.90;;;;;;10607114;28;19924;-88
2021/05/02 05:03:16;;;;;;;;;;;5.70;99.90;;;;;;10624798;28;19929;-88
2021/05/02 05:08:17;;;;;;;;;;;5.50;99.90;;;;;;10607265;28;19923;-88
2021/05/02 05:13:18;;;;;;;;;;;5.30;99.90;;;;;;10586261;28;19923;-88
2021/05/02 05:18:20;;;;;;;;;;;6.60;99.90;;;;;;10589815;28;19928;-88
2021/05/02 05:23:21;;;;;;;;;;;5.40;99.90;;;;;;10606269;27;19923;-89
2021/05/02 05:28:23;;;;;;;;;;;5.50;99.90;;;;;;10614658;27;19930;-88
2021/05/02 05:33:29;;;;;;;;;;;5.60;99.90;;;;;;10630934;27;20370;-88
2021/05/02 05:38:31;;;;;;;;;;;5.70;99.90;;;;;;10631413;27;19928;-88
2021/05/02 05:43:32;;;;;;;;;;;6.00;99.90;;;;;;10613249;27;19929;-88
2021/05/02 05:48:34;;;;;;;;;;;6.10;99.90;;;;;;10613938;27;19924;-88
2021/05/02 05:53:38;;;;;;;;;;;6.20;99.90;;;;;;10488345;28;19933;-88
2021/05/02 05:58:40;;;;;;;;;;;9.10;99.90;;;;;;10442076;28;19925;-88
2021/05/02 06:03:42;;;;;;;;;;;7.70;99.90;;;;;;10458555;28;19926;-88
2021/05/02 06:08:43;;;;;;;;;;;8.40;99.90;;;;;;10373770;28;19947;-88
2021/05/02 06:13:44;;;;;;;;;;;10.10;99.90;;;;;;10372976;28;19932;-88
2021/05/02 06:18:46;;;;;;;;;;;10.90;99.90;;;;;;10441667;28;19949;-88
2021/05/02 06:23:48;;;;;;;;;;;10.00;99.90;;;;;;10437256;28;19925;-88
2021/05/02 06:28:49;;;;;;;;;;;10.00;99.90;;;;;;10441171;28;19932;-88
2021/05/02 06:33:51;;;;;;;;;;;9.70;99.90;;;;;;10422732;28;19932;-88
2021/05/02 06:38:53;;;;;;;;;;;10.60;99.90;;;;;;10374640;28;19930;-87
2021/05/02 06:43:54;;;;;;;;;;;10.50;99.90;;;;;;10430138;28;19940;-88
2021/05/02 06:49:00;;;;;;;;;;;10.20;99.90;;;;;;10331777;28;19925;-90
2021/05/02 06:54:02;;;;;;;;;;;10.60;99.90;;;;;;10543674;27;19923;-87
2021/05/02 06:59:03;;;;;;;;;;;11.20;99.90;;;;;;10628476;27;19923;-87
2021/05/02 07:09:09;;;;;;;;;;;11.30;99.90;;;;;;10499402;28;19931;-86
2021/05/02 07:14:10;;;;;;;;;;;12.00;99.90;;;;;;10499381;28;20294;-87
2021/05/02 07:19:13;;;;;;;;;;;11.80;99.90;;;;;;10500047;28;19968;-85
2021/05/02 07:24:14;;;;;;;;;;;12.50;97.30;;;;;;10472114;28;19932;-87
2021/05/02 07:29:16;;;;;;;;;;;13.00;97.60;;;;;;10486106;28;20007;-85
2021/05/02 07:34:18;;;;;;;;;;;12.40;96.40;;;;;;10511053;28;19930;-86
2021/05/02 07:39:20;;;;;;;;;;;12.10;94.80;;;;;;10538554;28;19948;-87
2021/05/02 07:44:21;;;;;;;;;;;13.50;95.00;;;;;;10523336;28;20278;-87
2021/05/02 07:49:23;;;;;;;;;;;12.90;94.10;;;;;;10541525;28;19973;-86
2021/05/02 07:54:24;;;;;;;;;;;12.80;94.00;;;;;;10491566;28;19931;-87
2021/05/02 07:59:25;;;;;;;;;;;12.90;95.20;;;;;;10481818;28;19931;-87
2021/05/02 08:04:26;;;;;;;;;;;12.70;92.80;;;;;;10480974;28;19928;-87
2021/05/02 08:09:28;;;;;;;;;;;13.10;92.80;;;;;;10503257;28;19925;-86
2021/05/02 08:14:29;;;;;;;;;;;11.70;93.60;;;;;;10479804;28;20405;-88
2021/05/02 08:19:31;;;;;;;;;;;11.30;94.70;;;;;;10497973;28;20486;-87
2021/05/02 08:24:33;;;;;;;;;;;12.60;94.30;;;;;;10492053;28;19936;-88
2021/05/02 08:29:34;;;;;;;;;;;14.00;89.30;;;;;;10478369;28;19924;-88
2021/05/02 08:34:35;;;;;;;;;;;14.20;84.30;;;;;;10480598;28;20327;-88
2021/05/02 08:39:37;;;;;;;;;;;14.00;79.00;;;;;;10497570;28;19932;-88
2021/05/02 08:44:40;;;;;;;;;;;12.40;77.00;;;;;;10507668;28;19933;-88
2021/05/02 08:49:42;;;;;;;;;;;11.60;88.70;;;;;;10510620;28;19928;-88
2021/05/02 08:54:43;;;;;;;;;;;11.00;93.80;;;;;;10493127;28;19924;-88
2021/05/02 08:59:45;;;;;;;;;;;12.40;95.20;;;;;;10484833;28;19936;-88
2021/05/02 09:04:56;;;;;;;;;;;14.10;91.60;;;;;;10501043;28;20163;-88
2021/05/02 09:09:57;;;;;;;;;;;13.90;83.90;;;;;;10488624;28;19924;-88
2021/05/02 09:15:03;;;;;;;;;;;12.50;91.10;;;;;;10505971;28;19958;-89
2021/05/02 09:20:04;;;;;;;;;;;14.20;83.90;;;;;;10512713;28;19938;-87
2021/05/02 09:25:11;;;;;;;;;;;13.10;76.10;;;;;;10489069;28;19929;-88
2021/05/02 09:30:16;;;;;;;;;;;12.10;84.70;;;;;;10491340;28;19951;-88
2021/05/02 09:35:25;;;;;;;;;;;11.60;83.80;;;;;;10497925;28;19943;-88
2021/05/02 09:40:26;;;;;;;;;;;11.30;84.30;;;;;;10478952;28;19929;-88
2021/05/02 09:45:27;;;;;;;;;;;12.40;84.00;;;;;;10496840;28;19929;-88
2021/05/02 09:50:35;;;;;;;;;;;12.00;81.00;;;;;;10495363;28;19968;-88
2021/05/02 09:55:43;;;;;;;;;;;11.20;84.70;;;;;;10493826;28;19952;-88
2021/05/02 10:00:50;;;;;;;;;;;11.10;87.80;;;;;;10497384;28;19928;-88
2021/05/02 10:06:00;;;;;;;;;;;14.20;84.70;;;;;;10501202;28;19928;-90
2021/05/02 10:11:06;;;;;;;;;;;14.50;71.50;;;;;;10502487;28;20398;-90
2021/05/02 10:16:09;;;;;;;;;;;12.50;78.70;;;;;;10485456;28;19924;-89
2021/05/02 10:21:11;;;;;;;;;;;11.40;83.30;;;;;;10485094;28;20015;-89
2021/05/02 10:26:13;;;;;;;;;;;11.20;89.70;;;;;;10486128;28;19931;-89
2021/05/02 10:31:15;;;;;;;;;;;11.10;86.70;;;;;;10505455;28;19925;-89
2021/05/02 10:36:24;;;;;;;;;;;10.70;89.70;;;;;;10492832;28;19932;-89
2021/05/02 10:41:31;;;;;;;;;;;10.50;92.10;;;;;;10467313;28;20011;-89
2021/05/02 10:46:42;;;;;;;;;;;10.60;92.00;;;;;;10502137;28;19928;-89
2021/05/02 10:51:44;;;;;;;;;;;10.50;92.30;;;;;;10502042;28;19924;-90
2021/05/02 10:56:46;;;;;;;;;;;11.60;91.40;;;;;;10484164;28;19925;-90
2021/05/02 11:01:48;;;;;;;;;;;11.00;91.40;;;;;;10500498;28;19928;-90
2021/05/02 11:06:53;;;;;;;;;;;10.80;92.50;;;;;;10500097;28;19925;-89
2021/05/02 11:11:57;;;;;;;;;;;10.50;91.20;;;;;;10493831;28;20015;-87
2021/05/02 11:16:58;;;;;;;;;;;10.50;91.60;;;;;;10478070;28;19928;-88
2021/05/02 11:22:07;;;;;;;;;;;11.00;91.50;;;;;;10497047;28;20466;-89
2021/05/02 11:27:40;;;;;;;;;;;11.30;91.00;;;;;;10499889;28;19924;-89
2021/05/02 11:32:43;;;;;;;;;;;11.60;90.00;;;;;;10469694;28;19924;-88
2021/05/02 11:37:49;;;;;;;;;;;11.30;90.20;;;;;;10500188;28;19925;-89
2021/05/02 11:42:50;;;;;;;;;;;12.00;90.30;;;;;;10497416;28;19924;-90
2021/05/02 11:47:52;;;;;;;;;;;12.10;88.90;;;;;;10498659;28;19931;-89
2021/05/02 11:52:54;;;;;;;;;;;14.10;84.50;;;;;;10498315;28;20384;-91
2021/05/02 11:57:56;;;;;;;;;;;14.40;79.90;;;;;;10499896;28;19924;-90
2021/05/02 12:02:57;;;;;;;;;;;13.20;83.00;;;;;;10482084;28;19925;-90
2021/05/02 12:08:12;;;;;;;;;;;12.60;85.90;;;;;;10497879;28;19924;-88
2021/05/02 12:13:28;;;;;;;;;;;13.80;80.70;;;;;;10467339;28;19932;-89
2021/05/02 12:18:51;;;;;;;;;;;13.60;83.20;;;;;;10493674;28;19924;-89
2021/05/02 12:23:55;;;;;;;;;;;11.70;93.50;;;;;;10479850;28;19925;-90
2021/05/02 12:29:01;;;;;;;;;;;13.90;89.30;;;;;;10496559;28;19929;-88
2021/05/02 12:34:06;;;;;;;;;;;13.90;88.70;;;;;;10497700;28;19932;-90
2021/05/02 12:39:09;;;;;;;;;;;13.10;85.50;;;;;;10497220;28;20739;-89
2021/05/02 12:44:20;;;;;;;;;;;13.10;79.50;;;;;;10497282;28;19931;-89
2021/05/02 12:49:26;;;;;;;;;;;12.70;79.10;;;;;;10499469;28;20664;-89
2021/05/02 12:54:29;;;;;;;;;;;12.50;81.80;;;;;;10497596;28;19925;-89
2021/05/02 13:04:56;;;;;;;;;;;11.50;92.30;;;;;;10492231;22;19925;-86
2021/05/02 13:09:58;;;;;;;;;;;11.00;93.10;;;;;;10515959;28;19949;-85
2021/05/02 13:15:05;;;;;;;;;;;10.60;99.50;;;;;;10539277;28;19925;-86
2021/05/02 13:20:07;;;;;;;;;;;12.00;99.10;;;;;;10406908;28;19931;-86
2021/05/02 13:25:09;;;;;;;;;;;12.80;91.00;;;;;;10365239;28;19956;-86
2021/05/02 13:30:26;;;;;;;;;;;12.80;92.00;;;;;;10360058;28;20017;-87
2021/05/02 13:35:29;;;;;;;;;;;12.50;92.70;;;;;;10372834;28;20296;-87
2021/05/02 13:40:31;;;;;;;;;;;11.90;93.30;;;;;;10374626;28;19926;-86
2021/05/02 13:45:33;;;;;;;;;;;11.60;93.70;;;;;;10373752;28;19925;-87
2021/05/02 13:50:34;;;;;;;;;;;11.30;92.80;;;;;;10372638;28;19926;-87
2021/05/02 13:55:36;;;;;;;;;;;12.30;90.90;;;;;;10356910;28;19933;-87
2021/05/02 14:00:38;;;;;;;;;;;12.10;90.50;;;;;;10372119;28;19975;-87
2021/05/02 14:05:39;;;;;;;;;;;13.70;86.40;;;;;;10373429;28;20368;-86
2021/05/02 14:10:40;;;;;;;;;;;14.40;73.90;;;;;;10371592;28;19931;-87
2021/05/02 14:15:41;;;;;;;;;;;15.20;79.10;;;;;;10366924;28;19925;-88
2021/05/02 14:20:46;;;;;;;;;;;13.60;70.70;;;;;;10355009;28;19932;-86
2021/05/02 14:25:49;;;;;;;;;;;13.20;78.90;;;;;;10355287;28;19937;-88
2021/05/02 14:30:51;;;;;;;;;;;12.70;86.30;;;;;;10371352;28;20295;-86
2021/05/02 14:35:52;;;;;;;;;;;13.50;82.10;;;;;;10355300;28;19925;-87
2021/05/02 14:40:54;;;;;;;;;;;12.70;88.70;;;;;;10368976;28;19932;-86
2021/05/02 14:45:55;;;;;;;;;;;12.70;85.80;;;;;;10370991;28;19925;-86
2021/05/02 14:50:57;;;;;;;;;;;13.60;81.10;;;;;;10371934;28;19926;-87
2021/05/02 14:55:58;;;;;;;;;;;13.40;84.50;;;;;;10371515;28;19932;-87
2021/05/02 15:01:00;;;;;;;;;;;12.90;87.60;;;;;;10368301;28;19969;-86
2021/05/02 15:06:02;;;;;;;;;;;12.90;86.00;;;;;;10353250;28;19939;-86
2021/05/02 15:11:03;;;;;;;;;;;13.60;82.30;;;;;;10358133;28;19933;-86
2021/05/02 15:16:05;;;;;;;;;;;14.10;80.40;;;;;;10354465;28;19929;-87
2021/05/02 15:21:06;;;;;;;;;;;13.10;82.50;;;;;;10330304;28;20287;-86
2021/05/02 15:26:09;;;;;;;;;;;11.80;79.30;;;;;;10329650;28;20278;-86
2021/05/02 15:31:15;;;;;;;;;;;11.30;86.60;;;;;;10329642;28;19932;-86
2021/05/02 15:36:17;;;;;;;;;;;11.00;92.40;;;;;;10329113;28;20026;-86
2021/05/02 15:41:18;;;;;;;;;;;11.20;94.50;;;;;;10329436;28;19930;-86
2021/05/02 15:46:20;;;;;;;;;;;11.30;94.30;;;;;;10352275;28;19957;-86
2021/05/02 15:51:21;;;;;;;;;;;11.70;92.90;;;;;;10540473;28;20267;-87
2021/05/02 15:56:23;;;;;;;;;;;11.90;91.10;;;;;;10580743;28;20584;-87
2021/05/02 16:01:24;;;;;;;;;;;12.50;90.00;;;;;;10428496;28;19940;-87
2021/05/02 16:06:26;;;;;;;;;;;12.40;87.70;;;;;;10362149;28;20353;-86
2021/05/02 16:11:30;;;;;;;;;;;11.70;90.40;;;;;;10350119;28;20280;-87
2021/05/02 16:16:31;;;;;;;;;;;11.60;92.60;;;;;;10370137;28;19926;-87
2021/05/02 16:21:32;;;;;;;;;;;11.30;92.50;;;;;;10369545;28;20013;-86
2021/05/02 16:26:34;;;;;;;;;;;11.50;90.20;;;;;;10321425;28;19933;-86
2021/05/02 16:31:36;;;;;;;;;;;11.20;91.60;;;;;;10343358;28;20374;-86
2021/05/02 16:36:37;;;;;;;;;;;11.00;90.30;;;;;;10351276;28;20368;-86
2021/05/02 16:41:39;;;;;;;;;;;10.70;90.80;;;;;;10368307;28;19925;-86
2021/05/02 16:46:40;;;;;;;;;;;11.00;90.70;;;;;;10368737;28;19933;-86
2021/05/02 16:51:41;;;;;;;;;;;11.40;87.30;;;;;;10368665;28;19932;-86
2021/05/02 16:56:42;;;;;;;;;;;10.90;90.40;;;;;;10350123;28;20380;-86
2021/05/02 17:01:44;;;;;;;;;;;11.00;90.20;;;;;;10366734;28;20295;-86
2021/05/02 17:06:46;;;;;;;;;;;10.90;90.90;;;;;;10351829;28;20377;-87
2021/05/02 17:11:48;;;;;;;;;;;10.50;92.20;;;;;;10374547;28;20447;-87
2021/05/02 17:16:49;;;;;;;;;;;10.50;92.70;;;;;;10357891;28;20016;-86
2021/05/02 17:21:50;;;;;;;;;;;10.20;92.90;;;;;;10374179;28;19932;-86
2021/05/02 17:26:52;;;;;;;;;;;10.30;93.30;;;;;;10371124;28;19941;-87
2021/05/02 17:31:53;;;;;;;;;;;10.40;92.60;;;;;;10349951;28;19936;-86
2021/05/02 17:36:55;;;;;;;;;;;10.50;93.80;;;;;;10365515;28;19937;-86
2021/05/02 17:41:56;;;;;;;;;;;10.30;93.50;;;;;;10349598;28;20299;-86
2021/05/02 17:46:58;;;;;;;;;;;9.90;93.30;;;;;;10325732;28;20686;-87
2021/05/02 17:51:59;;;;;;;;;;;9.80;93.40;;;;;;10364263;28;19937;-87
2021/05/02 17:57:01;;;;;;;;;;;9.60;94.70;;;;;;10347499;28;19932;-86
2021/05/02 18:02:02;;;;;;;;;;;9.60;94.80;;;;;;10332203;28;19929;-86
2021/05/02 18:07:03;;;;;;;;;;;9.60;94.80;;;;;;10366475;28;19999;-86
2021/05/02 18:12:05;;;;;;;;;;;9.40;94.70;;;;;;10355819;28;20020;-87
2021/05/02 18:17:08;;;;;;;;;;;9.20;94.30;;;;;;10362827;28;20613;-87
2021/05/02 18:22:10;;;;;;;;;;;9.20;95.20;;;;;;10353226;28;20014;-87
2021/05/02 18:27:12;;;;;;;;;;;9.00;95.30;;;;;;10354605;28;19934;-87
2021/05/02 18:32:14;;;;;;;;;;;8.80;96.20;;;;;;10352805;28;19940;-86
2021/05/02 18:37:17;;;;;;;;;;;8.60;96.40;;;;;;10385106;28;19972;-86
2021/05/02 18:42:18;;;;;;;;;;;8.50;98.10;;;;;;10351043;28;19937;-87
2021/05/02 18:47:20;;;;;;;;;;;8.40;98.30;;;;;;10329715;28;19925;-87
2021/05/02 18:52:21;;;;;;;;;;;8.30;98.70;;;;;;10345313;28;19934;-87
2021/05/02 18:57:23;;;;;;;;;;;8.20;98.50;;;;;;10407961;28;19926;-87
2021/05/02 19:02:26;;;;;;;;;;;8.30;98.90;;;;;;10411483;28;19932;-87
2021/05/02 19:07:28;;;;;;;;;;;8.00;99.30;;;;;;10391740;23;19925;-87
2021/05/02 19:12:29;;;;;;;;;;;5.30;99.50;;;;;;10371684;28;19929;-86
2021/05/02 19:17:30;;;;;;;;;;;7.50;99.90;;;;;;10366538;28;20351;-87
2021/05/02 19:22:32;;;;;;;;;;;7.30;99.90;;;;;;10371409;28;19925;-87
2021/05/02 19:27:33;;;;;;;;;;;7.20;99.90;;;;;;10349632;28;19926;-87
2021/05/02 19:32:34;;;;;;;;;;;7.30;99.90;;;;;;10363836;28;20557;-87
2021/05/02 19:37:36;;;;;;;;;;;7.30;99.90;;;;;;10369364;28;19925;-87
2021/05/02 19:42:38;;;;;;;;;;;8.00;99.90;;;;;;10369306;28;20028;-87
2021/05/02 19:47:39;;;;;;;;;;;7.40;99.90;;;;;;10385654;28;19978;-87
2021/05/02 19:52:40;;;;;;;;;;;7.30;99.90;;;;;;10369249;28;19933;-87
2021/05/02 19:57:42;;;;;;;;;;;7.20;99.90;;;;;;10347959;28;20292;-87
2021/05/02 20:02:44;;;;;;;;;;;6.90;99.90;;;;;;10328304;28;19929;-87
2021/05/02 20:07:45;;;;;;;;;;;6.80;99.90;;;;;;10390479;28;20470;-87
2021/05/02 20:12:49;;;;;;;;;;;8.60;99.90;;;;;;10409932;28;20008;-87
2021/05/02 20:17:51;;;;;;;;;;;7.20;99.90;;;;;;10409722;28;20020;-87
2021/05/02 20:22:52;;;;;;;;;;;6.40;99.90;;;;;;10392930;28;19932;-87
2021/05/02 20:27:54;;;;;;;;;;;7.30;99.90;;;;;;10409934;28;19925;-87
2021/05/02 20:32:56;;;;;;;;;;;6.00;99.90;;;;;;10407716;28;19933;-87
2021/05/02 20:37:58;;;;;;;;;;;5.80;99.90;;;;;;10408474;28;19929;-87
2021/05/02 20:43:00;;;;;;;;;;;5.80;99.90;;;;;;10398355;28;19940;-87
2021/05/02 20:48:01;;;;;;;;;;;6.60;99.90;;;;;;10399040;28;19932;-87
2021/05/02 20:53:03;;;;;;;;;;;7.10;99.90;;;;;;10390396;28;19932;-87
2021/05/02 20:58:04;;;;;;;;;;;5.70;99.90;;;;;;10408954;28;19925;-87
2021/05/02 21:03:06;;;;;;;;;;;5.60;99.90;;;;;;10408649;28;19925;-87
2021/05/02 21:08:07;;;;;;;;;;;6.30;99.90;;;;;;10407940;28;19974;-87
2021/05/02 21:13:10;;;;;;;;;;;5.50;99.90;;;;;;10476436;28;20291;-87
2021/05/02 21:18:11;;;;;;;;;;;5.80;99.90;;;;;;10409433;28;19925;-87
2021/05/02 21:23:13;;;;;;;;;;;5.50;99.90;;;;;;10390886;28;19929;-87
2021/05/02 21:28:14;;;;;;;;;;;5.80;99.90;;;;;;10408152;28;19980;-87
2021/05/02 21:33:15;;;;;;;;;;;6.40;99.90;;;;;;10391200;28;19931;-87
2021/05/02 21:38:16;;;;;;;;;;;7.70;99.90;;;;;;10391266;28;19969;-87
2021/05/02 21:43:18;;;;;;;;;;;5.50;99.90;;;;;;10408597;28;19925;-87
2021/05/02 21:48:19;;;;;;;;;;;5.90;99.90;;;;;;10391261;28;19929;-87
2021/05/02 21:53:20;;;;;;;;;;;5.20;99.90;;;;;;10392546;28;19925;-87
2021/05/02 21:58:22;;;;;;;;;;;5.20;99.90;;;;;;10415785;28;19931;-87
2021/05/02 22:03:24;;;;;;;;;;;8.20;99.90;;;;;;10483692;28;19925;-87
2021/05/02 22:08:26;;;;;;;;;;;5.90;99.90;;;;;;10414277;28;20288;-87
2021/05/02 22:13:27;;;;;;;;;;;5.30;99.90;;;;;;10397127;28;20364;-87
2021/05/02 22:18:29;;;;;;;;;;;2.90;99.90;;;;;;10413667;28;19930;-87
2021/05/02 22:23:32;;;;;;;;;;;5.10;99.90;;;;;;10412759;28;19948;-87
2021/05/02 22:28:34;;;;;;;;;;;5.30;99.90;;;;;;10413440;28;19925;-87
2021/05/02 22:33:36;;;;;;;;;;;6.20;99.90;;;;;;10413593;28;19938;-87
2021/05/02 22:38:38;;;;;;;;;;;6.10;99.90;;;;;;10414186;28;19925;-87
2021/05/02 22:43:40;;;;;;;;;;;5.90;99.90;;;;;;10411577;28;20020;-87
2021/05/02 22:48:41;;;;;;;;;;;5.30;99.90;;;;;;10396366;28;20264;-87
2021/05/02 22:53:43;;;;;;;;;;;4.60;99.90;;;;;;10412971;28;19925;-87
2021/05/02 22:58:44;;;;;;;;;;;4.90;99.90;;;;;;10396205;28;20028;-87
2021/05/02 23:03:45;;;;;;;;;;;4.70;99.90;;;;;;10412140;28;19994;-87
2021/05/02 23:08:48;;;;;;;;;;;2.50;99.90;;;;;;10394505;28;20020;-87
2021/05/02 23:13:49;;;;;;;;;;;4.70;99.90;;;;;;10378083;28;19936;-87
2021/05/02 23:18:50;;;;;;;;;;;4.10;99.90;;;;;;10395494;28;19925;-87
2021/05/02 23:23:53;;;;;;;;;;;4.70;99.90;;;;;;10395386;28;19969;-87
2021/05/02 23:28:54;;;;;;;;;;;5.80;99.90;;;;;;10412680;28;19948;-87
2021/05/02 23:33:55;;;;;;;;;;;4.70;99.90;;;;;;10393794;28;20447;-87
2021/05/02 23:38:57;;;;;;;;;;;4.60;99.90;;;;;;10394299;28;19931;-87
2021/05/02 23:43:58;;;;;;;;;;;4.50;99.90;;;;;;10410930;28;20291;-87
2021/05/02 23:49:00;;;;;;;;;;;4.70;99.90;;;;;;10394311;28;20283;-87
2021/05/02 23:54:01;;;;;;;;;;;4.20;99.90;;;;;;10411503;28;19925;-87
2021/05/02 23:59:02;;;;;;;;;;;4.50;99.90;;;;;;10393634;28;19925;-87
